Terminal Aerodrome Forecast
Issued by NWS Springfield, MO

Home | Current Version | Previous Version | Text Only | Print | Product List | Glossary On
Versions: 1 2 3 4 5 6 7 8 9 10 11 12 13
000
FTUS43 KSGF 302300
TAFSGF
TAF
KSGF 302334Z 3100/3124 20005KT P6SM -SHRA SCT030 OVC050
     FM310400 VRB03KT 5SM BR SCT015 BKN030 OVC050
     FM311200 14005KT 6SM -SHRA BR OVC025
     FM311800 14006KT P6SM SCT025 BKN040=

USA.gov is the U.S. government's official web portal to all federal, state and local government web resources and services.